createdAt,value
2019-06-26T04:39:10.456Z,20.27
2019-06-26T04:41:15.979Z,21.60
2019-06-26T04:43:21.480Z,20.92
2019-06-26T04:45:27.027Z,19.37
2019-06-26T04:47:45.406Z,19.73
2019-06-26T04:49:50.936Z,19.73
2019-06-26T04:51:56.504Z,20.62
2019-06-26T04:54:03.132Z,20.50
2019-06-26T04:56:08.644Z,21.10
2019-06-26T04:58:14.196Z,20.60
2019-06-26T05:00:21.888Z,20.85
2019-06-26T05:02:27.589Z,19.10
2019-06-26T05:04:33.210Z,18.62
2019-06-26T05:06:38.746Z,19.23
2019-06-26T05:08:44.520Z,19.20
2019-06-26T05:10:50.184Z,19.20
2019-06-26T05:12:55.669Z,19.62
2019-06-26T05:15:01.221Z,20.32
2019-06-26T05:17:06.827Z,18.90
2019-06-26T05:19:12.367Z,19.17
2019-06-26T05:21:17.882Z,19.45
2019-06-26T05:23:23.420Z,20.27
2019-06-26T05:25:28.933Z,19.50
2019-06-26T05:27:34.589Z,18.90
2019-06-26T05:29:40.122Z,18.65
2019-06-26T05:31:45.734Z,18.37
2019-06-26T05:33:51.276Z,18.02
2019-06-26T05:35:56.794Z,18.55
2019-06-26T05:38:02.414Z,17.42
2019-06-26T05:40:11.557Z,18.87
2019-06-26T05:42:17.136Z,18.90
2019-06-26T05:44:22.644Z,18.57
2019-06-26T05:46:31.545Z,18.67
2019-06-26T05:48:35.374Z,17.77
2019-06-26T05:50:40.983Z,17.02
2019-06-26T05:52:46.500Z,17.35
2019-06-26T05:54:52.074Z,18.07
2019-06-26T05:56:57.567Z,17.05
2019-06-26T05:59:03.131Z,17.30
2019-06-26T06:01:08.733Z,17.15
2019-06-26T06:03:14.292Z,17.30
2019-06-26T06:05:20.033Z,17.32
2019-06-26T06:07:25.605Z,16.30
2019-06-26T06:10:08.552Z,18.23
2019-06-26T06:12:14.091Z,17.12
2019-06-26T06:14:19.644Z,16.90
2019-06-26T06:16:25.153Z,17.12
2019-06-26T06:18:30.668Z,17.12
2019-06-26T06:20:38.862Z,17.42
2019-06-26T06:22:44.407Z,17.42
2019-06-26T06:24:49.960Z,16.85
2019-06-26T06:26:55.690Z,18.07
2019-06-26T06:29:01.239Z,16.55
2019-06-26T06:31:06.731Z,15.50
2019-06-26T06:33:12.409Z,17.50
2019-06-26T06:35:17.917Z,16.60
2019-06-26T06:37:23.462Z,16.60
2019-06-26T06:39:29.050Z,15.85
2019-06-26T06:41:34.581Z,15.50
2019-06-26T06:43:40.116Z,17.32
2019-06-26T06:45:45.652Z,15.45
2019-06-26T06:47:51.197Z,16.27
2019-06-26T06:49:56.740Z,14.40
2019-06-26T06:52:02.373Z,15.40
2019-06-26T06:54:08.967Z,15.72
2019-06-26T06:56:15.593Z,14.87
2019-06-26T06:58:21.157Z,13.90
2019-06-26T07:00:26.820Z,13.95
2019-06-26T07:02:32.352Z,13.43
2019-06-26T07:04:37.929Z,13.62
2019-06-26T07:06:43.445Z,14.03
2019-06-26T07:08:48.962Z,13.75
2019-06-26T07:10:54.566Z,13.10
2019-06-26T07:13:00.060Z,13.13
2019-06-26T07:15:08.006Z,13.10
2019-06-26T07:17:20.548Z,13.90
2019-06-26T07:19:20.707Z,12.35
2019-06-26T07:21:26.293Z,11.48
2019-06-26T07:23:31.835Z,11.38
2019-06-26T07:25:37.352Z,10.58
2019-06-26T07:27:42.874Z,11.43
2019-06-26T07:29:48.422Z,11.35
2019-06-26T07:31:53.960Z,10.78
2019-06-26T07:33:59.498Z,10.93
2019-06-26T07:36:05.098Z,11.85
2019-06-26T07:38:10.599Z,11.20
2019-06-26T07:40:17.084Z,11.38
2019-06-26T07:42:22.653Z,11.85
2019-06-26T07:44:29.436Z,11.70
2019-06-26T07:46:34.983Z,11.30
2019-06-26T07:48:40.501Z,12.03
2019-06-26T07:51:59.456Z,12.33
2019-06-26T07:54:05.264Z,13.43
2019-06-26T07:56:10.808Z,12.23
2019-06-26T07:58:16.345Z,13.45
2019-06-26T08:00:21.984Z,12.60
2019-06-26T08:02:27.990Z,12.58
2019-06-26T08:04:33.880Z,13.43
2019-06-26T08:06:39.436Z,12.10
2019-06-26T08:08:44.967Z,11.88
2019-06-26T08:10:50.509Z,11.60
2019-06-26T08:12:56.087Z,9.98
2019-06-26T08:15:01.611Z,11.08
2019-06-26T08:17:07.390Z,9.95
2019-06-26T08:19:12.904Z,10.45
2019-06-26T08:21:18.433Z,9.65
2019-06-26T08:23:23.944Z,9.95
2019-06-26T08:25:29.512Z,11.25
2019-06-26T08:27:35.121Z,10.38
2019-06-26T08:29:40.665Z,9.33
2019-06-26T08:31:46.216Z,10.10
2019-06-26T08:33:51.752Z,9.30
2019-06-26T08:35:57.302Z,9.35
2019-06-26T08:38:11.103Z,9.05
2019-06-26T08:40:10.847Z,8.58
2019-06-26T08:42:16.385Z,8.83
2019-06-26T08:44:21.923Z,8.95
2019-06-26T08:46:27.454Z,9.48
2019-06-26T08:48:39.757Z,9.63
2019-06-26T08:50:40.114Z,8.73
2019-06-26T08:52:45.691Z,9.63
2019-06-26T08:54:51.244Z,10.05
2019-06-26T08:56:56.829Z,8.88
2019-06-26T08:59:02.292Z,8.88
2019-06-26T09:01:07.827Z,8.75
2019-06-26T09:03:13.412Z,8.55
2019-06-26T09:05:19.048Z,8.60
2019-06-26T09:07:24.489Z,8.60
2019-06-26T09:09:30.042Z,9.05
2019-06-26T09:11:36.125Z,8.83
2019-06-26T09:13:42.692Z,8.10
2019-06-26T09:15:49.904Z,7.78
2019-06-26T09:17:55.427Z,7.05
2019-06-26T09:20:00.944Z,7.45
2019-06-26T09:22:08.135Z,7.55
2019-06-26T09:24:13.670Z,7.42
2019-06-26T09:26:19.197Z,7.12
2019-06-26T09:28:24.698Z,7.58
2019-06-26T09:30:30.229Z,6.95
2019-06-26T09:32:35.732Z,9.05
2019-06-26T09:34:41.289Z,6.90
2019-06-26T09:36:46.827Z,7.35
2019-06-26T09:38:52.420Z,7.05
2019-06-26T09:40:57.956Z,7.03
2019-06-26T09:43:03.454Z,7.42
2019-06-26T09:45:09.464Z,6.35
2019-06-26T09:47:15.773Z,6.33
2019-06-26T09:49:21.346Z,6.80
2019-06-26T09:51:26.848Z,6.28
2019-06-26T09:53:46.048Z,6.30
2019-06-26T09:55:39.696Z,5.58
2019-06-26T09:57:45.275Z,5.87
2019-06-26T09:59:50.827Z,6.45
2019-06-26T10:01:56.297Z,6.30
2019-06-26T10:04:02.943Z,6.95
2019-06-26T10:06:08.511Z,6.62
2019-06-26T10:08:14.419Z,7.12
2019-06-26T10:10:20.284Z,7.35
2019-06-26T10:12:25.823Z,7.87
2019-06-26T10:14:46.653Z,6.67
2019-06-26T10:16:38.507Z,7.10
2019-06-26T10:18:44.008Z,7.17
2019-06-26T10:20:49.614Z,6.97
2019-06-26T10:22:55.147Z,7.62
2019-06-26T10:25:00.797Z,6.85
2019-06-26T10:27:06.438Z,7.60
2019-06-26T10:29:11.937Z,7.75
2019-06-26T10:31:18.496Z,7.12
2019-06-26T10:33:24.621Z,7.10
2019-06-26T10:35:30.242Z,7.50
2019-06-26T10:37:35.798Z,8.03
2019-06-26T10:39:41.348Z,7.22
2019-06-26T10:41:46.857Z,6.55
2019-06-26T10:43:52.519Z,6.05
2019-06-26T10:45:58.114Z,7.28
2019-06-26T10:48:03.771Z,6.95
2019-06-26T10:50:09.615Z,6.70
2019-06-26T10:52:15.245Z,5.75
2019-06-26T10:54:20.742Z,6.05
2019-06-26T10:56:28.634Z,5.72
2019-06-26T10:58:33.416Z,6.28
2019-06-26T11:00:39.661Z,6.35
2019-06-26T11:02:45.172Z,6.12
2019-06-26T11:04:50.774Z,6.40
2019-06-26T11:06:56.311Z,6.47
2019-06-26T11:09:01.892Z,6.33
2019-06-26T11:11:09.290Z,7.10
2019-06-26T11:13:14.809Z,6.25
2019-06-26T11:15:21.427Z,6.40
2019-06-26T11:17:26.945Z,6.15
2019-06-26T11:19:43.309Z,6.87
2019-06-26T11:21:39.661Z,7.00
2019-06-26T11:23:45.176Z,6.33
2019-06-26T11:25:50.684Z,6.30
2019-06-26T11:27:56.197Z,5.92
2019-06-26T11:30:01.822Z,6.53
2019-06-26T11:32:09.574Z,7.53
2019-06-26T11:34:14.900Z,6.50
2019-06-26T11:36:20.459Z,6.75
2019-06-26T11:38:26.010Z,6.75
2019-06-26T11:40:31.508Z,6.17
2019-06-26T11:42:37.105Z,6.17
2019-06-26T11:44:42.629Z,6.20
2019-06-26T11:46:48.466Z,6.08
2019-06-26T11:48:54.192Z,6.40
2019-06-26T11:51:00.125Z,6.22
2019-06-26T11:53:05.697Z,6.17
2019-06-26T11:55:13.364Z,8.38
2019-06-26T11:57:18.904Z,6.03
2019-06-26T11:59:24.429Z,6.30
2019-06-26T12:01:31.067Z,5.97
2019-06-26T12:03:36.634Z,5.80
2019-06-26T12:05:42.299Z,5.53
2019-06-26T12:07:47.807Z,5.33
2019-06-26T12:09:53.358Z,5.78
2019-06-26T12:11:58.948Z,6.12
2019-06-26T12:14:04.801Z,5.00
2019-06-26T12:16:10.302Z,5.15
2019-06-26T12:18:16.065Z,5.45
2019-06-26T12:20:21.764Z,5.65
2019-06-26T12:22:27.384Z,5.78
2019-06-26T12:24:32.947Z,5.80
2019-06-26T12:26:38.414Z,5.28
2019-06-26T12:28:43.924Z,5.65
2019-06-26T12:30:49.444Z,5.90
2019-06-26T12:33:02.733Z,5.33
2019-06-26T12:35:02.122Z,6.20
2019-06-26T12:37:07.891Z,5.20
2019-06-26T12:39:13.426Z,6.08
2019-06-26T12:41:19.040Z,5.58
2019-06-26T12:43:24.564Z,5.78
2019-06-26T12:45:30.098Z,4.90
2019-06-26T12:47:35.673Z,5.20
2019-06-26T12:49:41.192Z,6.08
2019-06-26T12:51:46.800Z,5.25
2019-06-26T12:53:52.393Z,5.47
2019-06-26T12:55:57.919Z,5.28
2019-06-26T12:58:13.228Z,5.95
2019-06-26T13:00:11.535Z,6.30
2019-06-26T13:02:18.016Z,6.00
2019-06-26T13:04:23.639Z,5.85
2019-06-26T13:06:29.140Z,6.53
2019-06-26T13:08:34.655Z,7.47
2019-06-26T13:10:49.657Z,5.50
2019-06-26T13:12:47.452Z,5.80
2019-06-26T13:14:52.955Z,6.25
2019-06-26T13:16:58.493Z,5.12
2019-06-26T13:19:04.107Z,5.72
2019-06-26T13:21:09.627Z,5.70
2019-06-26T13:23:15.172Z,6.65
2019-06-26T13:25:20.679Z,5.90
2019-06-26T13:27:26.210Z,6.03
2019-06-26T13:29:31.747Z,6.10
2019-06-26T13:31:38.315Z,5.62
2019-06-26T13:33:43.810Z,5.55
2019-06-26T13:35:49.347Z,5.78
2019-06-26T13:37:54.906Z,5.83
2019-06-26T13:40:00.428Z,5.97
2019-06-26T13:42:05.931Z,6.45
2019-06-26T13:44:11.530Z,5.92
2019-06-26T13:46:17.092Z,6.45
2019-06-26T13:48:22.627Z,6.12
2019-06-26T13:50:28.189Z,5.87
2019-06-26T13:52:34.735Z,6.05
2019-06-26T13:54:40.253Z,6.05
2019-06-26T13:56:45.767Z,6.20
2019-06-26T13:58:51.272Z,5.65
2019-06-26T14:00:56.796Z,5.83
2019-06-26T14:03:02.304Z,6.00
2019-06-26T14:05:08.689Z,5.53
2019-06-26T14:07:14.191Z,5.87
2019-06-26T14:09:19.696Z,6.28
2019-06-26T14:11:25.353Z,5.53
2019-06-26T14:13:30.905Z,6.45
2019-06-26T14:15:36.424Z,6.15
2019-06-26T14:17:41.978Z,5.80
2019-06-26T14:19:47.668Z,6.28
2019-06-26T14:21:53.251Z,5.92
2019-06-26T14:23:58.772Z,6.22
2019-06-26T14:26:04.364Z,6.12
2019-06-26T14:28:10.072Z,6.20
2019-06-26T14:30:16.085Z,6.40
2019-06-26T14:32:21.624Z,6.55
2019-06-26T14:34:27.982Z,6.92
2019-06-26T14:36:33.523Z,6.50
2019-06-26T14:38:39.083Z,6.65
2019-06-26T14:40:44.685Z,6.55
2019-06-26T14:42:50.220Z,6.70
2019-06-26T14:44:55.752Z,6.78
2019-06-26T14:47:01.332Z,7.35
2019-06-26T14:49:06.813Z,6.80
2019-06-26T14:51:12.375Z,6.72
2019-06-26T14:53:17.934Z,7.15
2019-06-26T14:55:23.424Z,7.33
2019-06-26T14:57:29.000Z,8.30
2019-06-26T14:59:34.636Z,8.00
2019-06-26T15:01:40.196Z,6.37
2019-06-26T15:03:45.720Z,6.15
2019-06-26T15:05:51.303Z,7.53
2019-06-26T15:07:56.836Z,6.97
2019-06-26T15:10:02.459Z,7.05
2019-06-26T15:12:08.075Z,6.90
2019-06-26T15:14:13.680Z,7.12
2019-06-26T15:16:19.247Z,7.33
2019-06-26T15:18:24.796Z,6.95
2019-06-26T15:20:30.307Z,7.58
2019-06-26T15:22:35.830Z,7.45
2019-06-26T15:24:41.342Z,6.45
2019-06-26T15:26:46.880Z,6.72
2019-06-26T15:28:52.413Z,7.37
2019-06-26T15:30:58.040Z,34.10
2019-06-26T15:33:03.590Z,6.95
2019-06-26T15:35:09.572Z,7.97
2019-06-26T15:37:15.075Z,7.67
2019-06-26T15:39:20.691Z,7.78
2019-06-26T15:41:26.245Z,8.18
2019-06-26T15:43:31.795Z,7.67
2019-06-26T15:45:37.328Z,7.15
2019-06-26T15:47:42.916Z,7.20
2019-06-26T15:49:48.411Z,7.53
2019-06-26T15:51:54.019Z,7.05
2019-06-26T15:54:00.142Z,8.00
2019-06-26T15:56:05.802Z,7.22
2019-06-26T15:58:11.321Z,7.45
2019-06-26T16:00:17.214Z,7.83
2019-06-26T16:02:22.767Z,7.92
2019-06-26T16:04:28.309Z,7.42
2019-06-26T16:06:33.809Z,7.53
2019-06-26T16:08:39.328Z,8.28
2019-06-26T16:10:44.870Z,7.92
2019-06-26T16:12:50.425Z,7.90
2019-06-26T16:14:55.939Z,7.60
2019-06-26T16:17:03.133Z,7.62
2019-06-26T16:19:13.000Z,8.00
2019-06-26T16:21:18.532Z,9.93
2019-06-26T16:23:24.071Z,8.70
2019-06-26T16:25:29.645Z,8.18
2019-06-26T16:27:35.326Z,8.60
2019-06-26T16:29:40.839Z,8.85
2019-06-26T16:31:46.380Z,8.23
2019-06-26T16:33:51.895Z,8.30
2019-06-26T16:35:57.438Z,8.43
2019-06-26T16:38:03.038Z,10.75
2019-06-26T16:40:08.894Z,9.25
2019-06-26T16:42:15.567Z,9.38
2019-06-26T16:44:22.026Z,8.50
2019-06-26T16:46:27.561Z,8.45
2019-06-26T16:48:33.119Z,8.93
2019-06-26T16:50:38.771Z,8.43
2019-06-26T16:52:49.277Z,8.78
2019-06-26T16:54:51.578Z,8.68
2019-06-26T16:56:57.149Z,9.60
2019-06-26T16:59:02.757Z,8.85
2019-06-26T17:01:08.354Z,8.75
2019-06-26T17:03:13.929Z,8.78
2019-06-26T17:05:19.490Z,8.83
2019-06-26T17:07:24.999Z,9.63
2019-06-26T17:09:30.694Z,10.13
2019-06-26T17:11:36.268Z,9.00
2019-06-26T17:13:41.786Z,9.48
2019-06-26T17:15:47.298Z,8.93
2019-06-26T17:17:52.846Z,9.15
2019-06-26T17:19:58.511Z,9.48
2019-06-26T17:22:04.365Z,9.75
2019-06-26T17:24:09.880Z,9.80
2019-06-26T17:26:16.541Z,9.65
2019-06-26T17:28:22.072Z,9.48
2019-06-26T17:30:27.649Z,10.88
2019-06-26T17:32:33.194Z,10.70
2019-06-26T17:34:38.694Z,10.63
2019-06-26T17:36:44.220Z,10.82
2019-06-26T17:38:49.740Z,11.05
2019-06-26T17:40:55.268Z,10.80
2019-06-26T17:43:11.750Z,11.08
2019-06-26T17:45:08.306Z,10.18
2019-06-26T17:47:13.915Z,10.28
2019-06-26T17:49:19.491Z,9.58
2019-06-26T17:51:24.988Z,10.53
2019-06-26T17:53:30.508Z,10.82
2019-06-26T17:55:36.064Z,10.85
2019-06-26T17:57:41.607Z,9.98
2019-06-26T17:59:47.107Z,10.43
2019-06-26T18:01:52.657Z,13.48
2019-06-26T18:03:58.165Z,9.28
2019-06-26T18:06:03.770Z,9.95
2019-06-26T18:08:09.332Z,11.75
2019-06-26T18:10:14.948Z,11.45
2019-06-26T18:12:20.498Z,11.85
2019-06-26T18:14:27.179Z,10.95
2019-06-26T18:16:33.802Z,10.80
2019-06-26T18:18:39.312Z,10.58
2019-06-26T18:20:44.867Z,9.88
2019-06-26T18:23:05.721Z,10.20
2019-06-26T18:24:57.595Z,10.20
2019-06-26T18:27:03.219Z,10.93
2019-06-26T18:29:08.735Z,9.88
2019-06-26T18:31:14.325Z,10.63
2019-06-26T18:33:19.820Z,10.05
2019-06-26T18:35:25.367Z,10.40
2019-06-26T18:37:30.856Z,9.38
2019-06-26T18:39:36.421Z,10.28
2019-06-26T18:41:41.951Z,9.70
2019-06-26T18:43:47.486Z,9.88
2019-06-26T18:45:53.089Z,10.20
2019-06-26T18:47:58.619Z,11.48
2019-06-26T18:50:08.629Z,9.93
2019-06-26T18:52:14.264Z,10.50
2019-06-26T18:54:19.780Z,11.40
2019-06-26T18:56:25.321Z,10.00
2019-06-26T18:58:30.996Z,11.55
2019-06-26T19:00:36.501Z,11.50
2019-06-26T19:02:42.130Z,10.30
2019-06-26T19:04:47.716Z,19.40
2019-06-26T19:06:53.221Z,13.78
2019-06-26T19:08:58.764Z,10.45
2019-06-26T19:11:04.330Z,10.85
2019-06-26T19:13:09.851Z,10.72
2019-06-26T19:15:15.528Z,8.90
2019-06-26T19:17:21.073Z,10.30
2019-06-26T19:19:26.681Z,9.58
2019-06-26T19:21:32.189Z,10.48
2019-06-26T19:23:37.726Z,12.25
2019-06-26T19:25:44.311Z,9.80
2019-06-26T19:27:50.020Z,13.65
2019-06-26T19:29:55.655Z,10.63
2019-06-26T19:32:01.189Z,16.07
2019-06-26T19:34:06.721Z,12.30
2019-06-26T19:36:12.259Z,15.20
2019-06-26T19:38:18.336Z,10.98
2019-06-26T19:40:24.421Z,9.60
2019-06-26T19:42:30.109Z,8.28
2019-06-26T19:44:35.640Z,9.53
2019-06-26T19:46:42.112Z,9.85
2019-06-26T19:48:47.656Z,9.45
2019-06-26T19:50:53.182Z,9.30
2019-06-26T19:52:58.682Z,9.23
2019-06-26T19:55:06.158Z,9.25
2019-06-26T19:57:11.687Z,9.63
2019-06-26T19:59:17.212Z,8.75
2019-06-26T20:01:22.813Z,10.05
2019-06-26T20:03:29.410Z,7.75
2019-06-26T20:05:34.976Z,8.53
2019-06-26T20:07:40.520Z,8.78
2019-06-26T20:09:46.040Z,9.13
2019-06-26T20:11:51.585Z,8.73
2019-06-26T20:13:57.118Z,8.33
2019-06-26T20:16:02.662Z,8.63
2019-06-26T20:18:08.210Z,8.90
2019-06-26T20:20:14.097Z,8.70
2019-06-26T20:22:19.711Z,9.15
2019-06-26T20:24:25.286Z,8.23
2019-06-26T20:26:30.925Z,8.95
2019-06-26T20:28:36.465Z,8.65
2019-06-26T20:30:41.986Z,8.68
2019-06-26T20:32:47.546Z,9.28
2019-06-26T20:34:53.356Z,9.45
2019-06-26T20:36:59.877Z,9.88
2019-06-26T20:39:05.759Z,10.35
2019-06-26T20:41:11.388Z,10.10
2019-06-26T20:43:16.944Z,10.90
2019-06-26T20:45:23.505Z,9.70
2019-06-26T20:47:29.069Z,10.23
2019-06-26T20:49:34.630Z,11.10
2019-06-26T20:51:40.189Z,9.93
2019-06-26T20:53:45.761Z,11.20
2019-06-26T20:55:51.311Z,11.08
2019-06-26T20:57:56.949Z,12.05
2019-06-26T21:00:02.495Z,10.40
2019-06-26T21:02:09.794Z,11.20
2019-06-26T21:04:15.373Z,11.25
2019-06-26T21:06:20.924Z,10.95
2019-06-26T21:08:29.592Z,12.15
2019-06-26T21:10:34.610Z,11.65
2019-06-26T21:12:40.145Z,11.68
2019-06-26T21:14:45.724Z,11.30
2019-06-26T21:16:51.243Z,11.90
2019-06-26T21:18:56.796Z,12.88
2019-06-26T21:21:02.346Z,11.70
2019-06-26T21:23:17.776Z,11.60
2019-06-26T21:25:19.173Z,11.95
2019-06-26T21:27:22.583Z,12.23
2019-06-26T21:29:28.101Z,12.13
2019-06-26T21:31:33.701Z,12.70
2019-06-26T21:33:39.269Z,11.90
2019-06-26T21:35:45.914Z,12.55
2019-06-26T21:37:52.597Z,13.05
2019-06-26T21:39:58.159Z,11.90
2019-06-26T21:42:03.841Z,12.98
2019-06-26T21:44:09.383Z,12.55
2019-06-26T21:46:14.961Z,12.75
2019-06-26T21:48:20.481Z,12.65
2019-06-26T21:50:28.809Z,12.60
2019-06-26T21:52:33.277Z,12.28
2019-06-26T21:54:38.906Z,12.50
2019-06-26T21:57:02.510Z,12.03
2019-06-26T21:59:25.956Z,12.97
2019-06-26T22:01:49.557Z,13.88
2019-06-26T22:04:13.323Z,14.40
2019-06-26T22:06:23.622Z,13.98
2019-06-26T22:08:48.836Z,14.05
2019-06-26T22:10:55.993Z,12.93
2019-06-26T22:13:01.696Z,12.20
2019-06-26T22:15:08.061Z,13.45
2019-06-26T22:17:15.175Z,12.65
2019-06-26T22:19:20.796Z,12.53
2019-06-26T22:21:26.401Z,13.75
2019-06-26T22:23:31.912Z,13.43
2019-06-26T22:25:50.286Z,12.43
2019-06-26T22:27:44.897Z,13.50
2019-06-26T22:29:50.486Z,13.22
2019-06-26T22:31:56.005Z,12.75
2019-06-26T22:34:01.532Z,12.00
2019-06-26T22:36:07.053Z,11.70
2019-06-26T22:38:12.614Z,11.93
2019-06-26T22:40:18.286Z,12.68
2019-06-26T22:42:23.785Z,13.22
2019-06-26T22:44:29.412Z,13.78
2019-06-26T22:46:34.948Z,12.50
2019-06-26T22:48:40.472Z,11.95
2019-06-26T22:50:46.025Z,12.10
2019-06-26T22:52:51.606Z,12.40
2019-06-26T22:54:57.121Z,12.07
2019-06-26T22:57:02.658Z,12.28
2019-06-26T22:59:08.208Z,11.63
2019-06-26T23:01:13.726Z,12.03
2019-06-26T23:03:19.374Z,11.68
2019-06-26T23:05:24.921Z,12.45
2019-06-26T23:07:30.469Z,13.00
2019-06-26T23:09:36.081Z,13.08
2019-06-26T23:11:41.673Z,12.93
2019-06-26T23:13:47.211Z,12.63
2019-06-26T23:15:52.741Z,12.23
2019-06-26T23:17:58.348Z,12.37
2019-06-26T23:20:08.809Z,11.35
2019-06-26T23:22:14.388Z,11.88
2019-06-26T23:24:19.909Z,11.65
2019-06-26T23:26:25.533Z,11.55
2019-06-26T23:28:31.104Z,10.50
2019-06-26T23:30:36.618Z,11.48
2019-06-26T23:32:42.182Z,11.75
2019-06-26T23:34:47.771Z,10.82
2019-06-26T23:36:53.288Z,10.10
2019-06-26T23:38:58.836Z,11.43
2019-06-26T23:41:04.521Z,10.63
2019-06-26T23:43:10.035Z,10.10
2019-06-26T23:45:15.628Z,10.98
2019-06-26T23:47:21.201Z,10.65
2019-06-26T23:49:26.715Z,11.22
2019-06-26T23:51:32.228Z,10.82
2019-06-26T23:53:37.818Z,11.10
2019-06-26T23:55:43.350Z,10.38
2019-06-26T23:57:59.168Z,11.25
2019-06-26T23:59:56.080Z,10.98
